createdAt,value
2023-03-06T00:00:34.572Z,82.98
2023-03-06T00:01:08.725Z,83.25
2023-03-06T00:01:40.322Z,83.11
2023-03-06T00:02:11.841Z,83.19
2023-03-06T00:02:44.231Z,83.38
2023-03-06T00:03:16.453Z,83.32
2023-03-06T00:03:48.175Z,83.31
2023-03-06T00:04:19.657Z,83.44
2023-03-06T00:04:51.106Z,83.32
2023-03-06T00:05:22.714Z,83.30
2023-03-06T00:05:57.084Z,83.41
2023-03-06T00:06:28.694Z,83.28
2023-03-06T00:07:00.120Z,83.27
2023-03-06T00:07:31.455Z,83.46
2023-03-06T00:08:03.595Z,83.41
2023-03-06T00:08:35.027Z,83.20
2023-03-06T00:09:06.461Z,83.50
2023-03-06T00:09:38.510Z,83.32
2023-03-06T00:10:15.471Z,83.62
2023-03-06T00:10:46.956Z,83.64
2023-03-06T00:11:18.300Z,83.54
2023-03-06T00:11:49.647Z,83.71
2023-03-06T00:12:21.009Z,83.82
2023-03-06T00:12:54.122Z,83.84
2023-03-06T00:13:26.733Z,83.63
2023-03-06T00:13:58.363Z,83.71
2023-03-06T00:14:29.815Z,83.63
2023-03-06T00:15:01.507Z,83.62
2023-03-06T00:15:33.311Z,83.78
2023-03-06T00:16:07.140Z,83.37
2023-03-06T00:16:38.751Z,83.50
2023-03-06T00:17:10.151Z,83.58
2023-03-06T00:17:41.748Z,83.46
2023-03-06T00:18:13.748Z,83.47
2023-03-06T00:18:45.118Z,83.50
2023-03-06T00:19:16.579Z,83.60
2023-03-06T00:19:47.965Z,83.40
2023-03-06T00:20:20.793Z,83.32
2023-03-06T00:20:52.197Z,83.46
2023-03-06T00:21:23.590Z,83.55
2023-03-06T00:21:55.297Z,83.59
2023-03-06T00:22:26.874Z,83.40
2023-03-06T00:22:58.310Z,83.57
2023-03-06T00:23:29.711Z,83.54
2023-03-06T00:24:01.232Z,83.94
2023-03-06T00:24:32.598Z,84.09
2023-03-06T00:25:05.074Z,83.92
2023-03-06T00:25:38.589Z,84.08
2023-03-06T00:26:10.245Z,84.25
2023-03-06T00:26:41.807Z,84.49
2023-03-06T00:27:13.340Z,84.29
2023-03-06T00:27:45.191Z,84.51
2023-03-06T00:28:17.665Z,84.42
2023-03-06T00:28:49.140Z,84.31
2023-03-06T00:29:20.613Z,84.56
2023-03-06T00:29:56.363Z,84.33
2023-03-06T00:30:27.775Z,84.77
2023-03-06T00:31:00.423Z,84.52
2023-03-06T00:31:31.847Z,84.81
2023-03-06T00:32:03.408Z,84.90
2023-03-06T00:32:34.817Z,85.06
2023-03-06T00:33:06.381Z,85.07
2023-03-06T00:33:37.770Z,85.19
2023-03-06T00:34:09.340Z,84.99
2023-03-06T00:34:40.691Z,85.09
2023-03-06T00:35:12.979Z,85.17
2023-03-06T00:35:44.428Z,84.99
2023-03-06T00:36:15.944Z,85.25
2023-03-06T00:36:47.302Z,85.49
2023-03-06T00:37:19.139Z,85.13
2023-03-06T00:37:50.493Z,85.19
2023-03-06T00:38:22.026Z,85.26
2023-03-06T00:38:53.625Z,85.45
2023-03-06T00:39:25.042Z,85.61
2023-03-06T00:39:56.473Z,85.39
2023-03-06T00:40:27.942Z,85.49
2023-03-06T00:40:59.742Z,85.44
2023-03-06T00:41:31.061Z,85.75
2023-03-06T00:42:02.425Z,85.71
2023-03-06T00:42:33.831Z,85.63
2023-03-06T00:43:05.391Z,85.57
2023-03-06T00:43:37.298Z,85.67
2023-03-06T00:44:08.714Z,85.69
2023-03-06T00:44:40.101Z,85.87
2023-03-06T00:45:12.129Z,85.80
2023-03-06T00:45:43.546Z,85.91
2023-03-06T00:46:14.967Z,85.95
2023-03-06T00:46:46.540Z,85.91
2023-03-06T00:47:18.137Z,86.16
2023-03-06T00:47:49.568Z,86.11
2023-03-06T00:48:21.235Z,86.10
2023-03-06T00:48:52.664Z,86.03
2023-03-06T00:49:24.048Z,86.18
2023-03-06T00:49:55.523Z,86.11
2023-03-06T00:50:27.037Z,86.29
2023-03-06T00:50:58.605Z,86.18
2023-03-06T00:51:30.035Z,85.84
2023-03-06T00:52:01.714Z,86.14
2023-03-06T00:52:33.506Z,86.11
2023-03-06T00:53:04.907Z,86.28
2023-03-06T00:53:36.350Z,86.29
2023-03-06T00:54:07.723Z,86.24
2023-03-06T00:54:39.581Z,86.21
2023-03-06T00:55:11.068Z,86.32
2023-03-06T00:55:45.708Z,86.32
2023-03-06T00:56:19.609Z,86.22
2023-03-06T00:56:51.362Z,86.65
2023-03-06T00:57:22.937Z,86.53
2023-03-06T00:57:54.381Z,86.43
2023-03-06T00:58:25.761Z,86.48
2023-03-06T00:58:57.176Z,86.80
2023-03-06T00:59:28.550Z,86.79
2023-03-06T01:00:00.003Z,86.87
2023-03-06T01:00:31.692Z,86.52
2023-03-06T01:01:03.890Z,86.32
2023-03-06T01:01:35.532Z,86.93
2023-03-06T01:02:07.080Z,87.01
2023-03-06T01:02:38.622Z,86.65
2023-03-06T01:03:10.209Z,87.13
2023-03-06T01:03:41.679Z,86.96
2023-03-06T01:04:13.329Z,86.99
2023-03-06T01:04:44.894Z,86.98
2023-03-06T01:05:16.614Z,86.97
2023-03-06T01:05:48.083Z,87.04
2023-03-06T01:06:19.438Z,86.93
2023-03-06T01:06:50.941Z,86.74
2023-03-06T01:07:22.668Z,87.02
2023-03-06T01:07:54.045Z,87.26
2023-03-06T01:08:25.473Z,87.01
2023-03-06T01:08:57.083Z,87.15
2023-03-06T01:09:29.200Z,87.16
2023-03-06T01:10:00.677Z,87.20
2023-03-06T01:10:32.570Z,87.12
2023-03-06T01:11:04.110Z,87.08
2023-03-06T01:11:35.528Z,87.08
2023-03-06T01:12:07.486Z,87.17
2023-03-06T01:12:38.959Z,87.43
2023-03-06T01:13:10.607Z,87.45
2023-03-06T01:13:42.160Z,87.50
2023-03-06T01:14:13.573Z,87.30
2023-03-06T01:14:45.381Z,87.50
2023-03-06T01:15:16.786Z,87.68
2023-03-06T01:15:48.182Z,87.52
2023-03-06T01:16:21.124Z,87.68
2023-03-06T01:16:53.497Z,87.50
2023-03-06T01:17:24.888Z,87.49
2023-03-06T01:17:56.365Z,87.32
2023-03-06T01:18:27.870Z,87.43
2023-03-06T01:18:59.599Z,87.77
2023-03-06T01:19:31.023Z,87.53
2023-03-06T01:20:02.611Z,87.66
2023-03-06T01:20:34.184Z,87.66
2023-03-06T01:21:06.255Z,87.62
2023-03-06T01:21:37.719Z,87.69
2023-03-06T01:22:09.110Z,87.45
2023-03-06T01:22:40.598Z,87.44
2023-03-06T01:23:12.003Z,87.52
2023-03-06T01:23:43.649Z,87.68
2023-03-06T01:24:15.118Z,87.58
2023-03-06T01:24:46.473Z,87.51
2023-03-06T01:25:18.002Z,87.60
2023-03-06T01:25:49.398Z,87.66
2023-03-06T01:26:20.810Z,87.77
2023-03-06T01:26:52.318Z,87.92
2023-03-06T01:27:23.678Z,88.15
2023-03-06T01:27:55.182Z,88.02
2023-03-06T01:28:26.918Z,88.19
2023-03-06T01:28:58.561Z,87.99
2023-03-06T01:29:30.210Z,88.10
2023-03-06T01:30:01.959Z,87.90
2023-03-06T01:30:33.374Z,88.13
2023-03-06T01:31:05.666Z,87.93
2023-03-06T01:31:37.409Z,88.19
2023-03-06T01:32:08.798Z,88.18
2023-03-06T01:32:40.347Z,87.96
2023-03-06T01:33:11.949Z,88.08
2023-03-06T01:33:43.499Z,87.91
2023-03-06T01:34:15.014Z,87.81
2023-03-06T01:34:46.397Z,88.16
2023-03-06T01:35:18.662Z,88.13
2023-03-06T01:35:50.081Z,88.36
2023-03-06T01:36:21.620Z,88.07
2023-03-06T01:36:53.001Z,87.89
2023-03-06T01:37:24.395Z,88.26
2023-03-06T01:37:55.788Z,88.30
2023-03-06T01:38:27.217Z,88.06
2023-03-06T01:38:58.650Z,88.32
2023-03-06T01:39:31.692Z,88.32
2023-03-06T01:40:03.822Z,88.16
2023-03-06T01:40:37.826Z,88.19
2023-03-06T01:41:10.894Z,88.25
2023-03-06T01:41:42.236Z,88.26
2023-03-06T01:42:13.929Z,88.19
2023-03-06T01:42:46.860Z,88.48
2023-03-06T01:43:29.009Z,88.51
2023-03-06T01:44:00.687Z,88.42
2023-03-06T01:44:32.420Z,88.28
2023-03-06T01:45:09.717Z,88.44
2023-03-06T01:45:41.110Z,88.62
2023-03-06T01:46:46.311Z,88.30
2023-03-06T01:47:17.780Z,88.12
2023-03-06T01:47:49.256Z,88.47
2023-03-06T01:48:23.378Z,88.46
2023-03-06T01:49:02.684Z,88.35
2023-03-06T01:49:38.102Z,88.19
2023-03-06T01:50:12.759Z,88.08
2023-03-06T01:50:44.354Z,88.27
2023-03-06T01:51:16.033Z,88.08
2023-03-06T01:52:08.932Z,88.34
2023-03-06T01:52:52.534Z,88.17
2023-03-06T01:53:24.320Z,88.15
2023-03-06T01:53:57.891Z,88.25
2023-03-06T01:54:37.892Z,88.49
2023-03-06T01:55:14.093Z,88.31
2023-03-06T01:55:45.810Z,88.26
2023-03-06T01:56:17.343Z,88.51
2023-03-06T01:56:51.342Z,88.66
2023-03-06T01:57:30.629Z,88.83
2023-03-06T01:58:07.039Z,88.47
2023-03-06T01:58:39.042Z,88.51
2023-03-06T01:59:10.802Z,88.56
2023-03-06T02:00:32.378Z,88.57
2023-03-06T02:01:04.360Z,88.40
2023-03-06T02:01:39.770Z,88.71
2023-03-06T02:02:14.595Z,88.67
2023-03-06T02:02:52.756Z,88.71
2023-03-06T02:03:26.930Z,88.58
2023-03-06T02:04:00.847Z,88.49
2023-03-06T02:04:33.684Z,88.57
2023-03-06T02:05:07.239Z,88.70
2023-03-06T02:05:40.557Z,88.86
2023-03-06T02:06:12.018Z,88.74
2023-03-06T02:06:43.774Z,89.09
2023-03-06T02:07:18.749Z,88.80
2023-03-06T02:07:51.634Z,88.87
2023-03-06T02:08:24.341Z,88.77
2023-03-06T02:08:56.214Z,89.05
2023-03-06T02:09:30.165Z,89.13
2023-03-06T02:10:01.896Z,89.08
2023-03-06T02:10:33.472Z,88.93
2023-03-06T02:11:25.663Z,88.98
2023-03-06T02:11:57.703Z,89.17
2023-03-06T02:12:29.319Z,88.83
2023-03-06T02:13:00.933Z,88.74
2023-03-06T02:13:32.627Z,88.67
2023-03-06T02:14:04.267Z,88.94
2023-03-06T02:14:36.284Z,88.68
2023-03-06T02:15:07.805Z,89.00
2023-03-06T02:15:39.459Z,89.20
2023-03-06T02:16:11.881Z,88.84
2023-03-06T02:16:44.106Z,89.11
2023-03-06T02:17:18.332Z,89.19
2023-03-06T02:17:51.572Z,89.00
2023-03-06T02:18:23.187Z,89.02
2023-03-06T02:18:55.211Z,88.96
2023-03-06T02:20:03.895Z,88.87
2023-03-06T02:20:46.088Z,89.13
2023-03-06T02:21:25.552Z,88.89
2023-03-06T02:21:57.068Z,88.98
2023-03-06T02:22:39.054Z,88.64
2023-03-06T02:23:28.294Z,89.05
2023-03-06T02:24:13.768Z,88.93
2023-03-06T02:24:59.769Z,88.72
2023-03-06T02:25:42.108Z,89.07
2023-03-06T02:26:14.226Z,88.78
2023-03-06T02:26:47.698Z,89.26
2023-03-06T02:27:20.374Z,89.18
2023-03-06T02:27:51.755Z,89.14
2023-03-06T02:28:24.471Z,89.31
2023-03-06T02:28:58.423Z,89.35
2023-03-06T02:29:30.397Z,89.41
2023-03-06T02:30:06.719Z,89.47
2023-03-06T02:30:38.668Z,89.75
2023-03-06T02:31:21.452Z,89.61
2023-03-06T02:31:52.915Z,89.40
2023-03-06T02:32:24.397Z,89.46
2023-03-06T02:32:56.843Z,89.68
2023-03-06T02:33:29.428Z,89.76
2023-03-06T02:34:02.086Z,89.58
2023-03-06T02:34:39.306Z,89.70
2023-03-06T02:35:25.974Z,89.61
2023-03-06T02:36:10.371Z,89.51
2023-03-06T02:36:45.978Z,89.38
2023-03-06T02:37:17.566Z,89.62
2023-03-06T02:37:49.549Z,89.59
2023-03-06T02:38:24.780Z,89.82
2023-03-06T02:38:57.067Z,89.88
2023-03-06T02:39:33.500Z,89.75
2023-03-06T02:40:12.194Z,89.75
2023-03-06T02:40:46.923Z,89.83
2023-03-06T02:41:18.593Z,89.92
2023-03-06T02:41:50.103Z,89.72
2023-03-06T02:42:25.130Z,90.04
2023-03-06T02:42:58.337Z,89.79
2023-03-06T02:43:34.331Z,90.06
2023-03-06T02:44:05.880Z,89.83
2023-03-06T02:44:37.406Z,89.92
2023-03-06T02:45:12.184Z,90.53
2023-03-06T02:45:49.757Z,90.05
2023-03-06T02:46:21.309Z,90.36
2023-03-06T02:46:52.792Z,90.29
2023-03-06T02:47:24.390Z,90.31
2023-03-06T02:47:55.830Z,90.31
2023-03-06T02:48:27.308Z,90.40
2023-03-06T02:48:58.678Z,90.41
2023-03-06T02:49:30.032Z,90.35
2023-03-06T02:50:01.515Z,90.60
2023-03-06T02:50:33.019Z,90.43
2023-03-06T02:51:04.656Z,90.58
2023-03-06T02:51:36.109Z,90.76
2023-03-06T02:52:07.990Z,91.13
2023-03-06T02:52:39.432Z,90.81
2023-03-06T02:53:13.121Z,91.04
2023-03-06T02:53:44.603Z,91.18
2023-03-06T02:54:18.279Z,90.74
2023-03-06T02:54:49.676Z,91.06
2023-03-06T02:55:21.265Z,91.29
2023-03-06T02:55:52.738Z,91.00
2023-03-06T02:56:24.190Z,91.23
2023-03-06T02:56:55.575Z,91.23
2023-03-06T02:57:26.965Z,91.16
2023-03-06T02:57:58.464Z,91.00
2023-03-06T02:58:29.866Z,91.26
2023-03-06T02:59:01.310Z,91.36
2023-03-06T02:59:33.096Z,91.38
2023-03-06T03:00:05.663Z,91.40
2023-03-06T03:00:37.151Z,91.28
2023-03-06T03:01:08.751Z,91.32
2023-03-06T03:01:40.145Z,91.26
2023-03-06T03:02:11.647Z,91.45
2023-03-06T03:02:43.918Z,91.27
2023-03-06T03:03:15.766Z,91.31
2023-03-06T03:03:47.175Z,91.43
2023-03-06T03:04:18.758Z,91.52
2023-03-06T03:04:50.574Z,91.24
2023-03-06T03:05:22.174Z,91.18
2023-03-06T03:05:53.578Z,91.44
2023-03-06T03:06:24.989Z,91.55
2023-03-06T03:06:56.356Z,91.50
2023-03-06T03:07:27.793Z,91.85
2023-03-06T03:07:59.180Z,91.69
2023-03-06T03:08:30.611Z,91.72
2023-03-06T03:09:02.015Z,91.86
2023-03-06T03:09:36.867Z,91.90
2023-03-06T03:10:09.028Z,91.99
2023-03-06T03:10:40.475Z,91.69
2023-03-06T03:11:12.628Z,91.71
2023-03-06T03:11:43.969Z,91.69
2023-03-06T03:12:15.327Z,91.83
2023-03-06T03:12:46.751Z,91.94
2023-03-06T03:13:19.543Z,91.79
2023-03-06T03:13:50.898Z,92.08
2023-03-06T03:14:25.063Z,92.04
2023-03-06T03:14:56.730Z,91.70
2023-03-06T03:15:28.294Z,91.98
2023-03-06T03:16:08.903Z,91.72
2023-03-06T03:16:40.310Z,91.80
2023-03-06T03:17:11.734Z,91.95
2023-03-06T03:17:43.595Z,91.79
2023-03-06T03:18:15.029Z,91.85
2023-03-06T03:18:48.067Z,91.88
2023-03-06T03:19:19.747Z,91.97
2023-03-06T03:19:51.853Z,91.84
2023-03-06T03:20:23.545Z,92.19
2023-03-06T03:20:55.466Z,91.75
2023-03-06T03:21:27.578Z,92.00
2023-03-06T03:21:59.091Z,92.08
2023-03-06T03:22:30.758Z,91.92
2023-03-06T03:23:02.213Z,91.78
2023-03-06T03:23:33.718Z,91.88
2023-03-06T03:24:05.360Z,92.07
2023-03-06T03:24:36.716Z,92.03
2023-03-06T03:25:08.851Z,92.33
2023-03-06T03:25:40.235Z,92.05
2023-03-06T03:26:14.532Z,92.20
2023-03-06T03:26:45.950Z,92.14
2023-03-06T03:27:17.423Z,92.21
2023-03-06T03:27:48.834Z,92.18
2023-03-06T03:28:20.284Z,92.03
2023-03-06T03:28:51.739Z,92.36
2023-03-06T03:29:23.344Z,92.21
2023-03-06T03:29:57.419Z,92.38
2023-03-06T03:30:28.868Z,92.25
2023-03-06T03:31:05.318Z,92.41
2023-03-06T03:31:37.097Z,92.04
2023-03-06T03:32:08.750Z,92.06
2023-03-06T03:32:40.188Z,92.17
2023-03-06T03:33:11.882Z,92.29
2023-03-06T03:33:43.307Z,92.42
2023-03-06T03:34:15.014Z,92.37
2023-03-06T03:34:46.384Z,92.37
2023-03-06T03:35:17.990Z,92.37
2023-03-06T03:35:57.057Z,92.36
2023-03-06T03:36:28.617Z,92.37
2023-03-06T03:37:00.025Z,92.50
2023-03-06T03:37:31.457Z,92.20
2023-03-06T03:38:03.447Z,92.30
2023-03-06T03:38:35.500Z,92.50
2023-03-06T03:39:07.482Z,92.49
2023-03-06T03:39:38.886Z,92.53
2023-03-06T03:40:11.082Z,92.44
2023-03-06T03:40:42.420Z,92.63
2023-03-06T03:41:13.888Z,92.43
2023-03-06T03:41:45.525Z,92.43
2023-03-06T03:42:17.001Z,92.58
2023-03-06T03:42:48.404Z,92.43
2023-03-06T03:43:20.214Z,92.39
2023-03-06T03:43:51.709Z,92.35
2023-03-06T03:44:23.391Z,92.45
2023-03-06T03:44:54.772Z,92.55
2023-03-06T03:45:26.213Z,92.58
2023-03-06T03:45:57.642Z,92.35
2023-03-06T03:46:29.461Z,92.61
2023-03-06T03:47:00.884Z,92.64
2023-03-06T03:47:32.289Z,92.34
2023-03-06T03:48:03.797Z,92.36
2023-03-06T03:48:35.225Z,92.51
2023-03-06T03:49:55.622Z,92.49
2023-03-06T03:50:27.123Z,92.61
2023-03-06T03:51:13.112Z,92.32
2023-03-06T03:51:45.022Z,92.50
2023-03-06T03:52:16.459Z,92.43
2023-03-06T03:52:47.905Z,92.59
2023-03-06T03:53:19.277Z,92.42
2023-03-06T03:53:50.923Z,92.55
2023-03-06T03:54:22.283Z,92.37
2023-03-06T03:54:53.689Z,92.78
2023-03-06T03:55:25.377Z,92.44
2023-03-06T03:55:56.732Z,92.40
2023-03-06T03:56:28.127Z,92.65
2023-03-06T03:56:59.542Z,92.37
2023-03-06T03:57:31.520Z,92.78
2023-03-06T03:58:02.979Z,92.50
2023-03-06T03:58:34.418Z,92.79
2023-03-06T03:59:05.821Z,92.65
2023-03-06T03:59:37.530Z,92.91
2023-03-06T04:00:11.933Z,92.85
2023-03-06T04:00:43.276Z,92.82
2023-03-06T04:01:14.646Z,92.74
2023-03-06T04:01:46.264Z,93.06
2023-03-06T04:02:17.876Z,92.72
2023-03-06T04:02:49.526Z,93.01
2023-03-06T04:03:21.023Z,92.86
2023-03-06T04:03:52.404Z,93.35
2023-03-06T04:04:23.826Z,93.25
2023-03-06T04:04:55.365Z,93.12
2023-03-06T04:05:26.740Z,93.05
2023-03-06T04:05:58.504Z,93.22
2023-03-06T04:06:30.170Z,93.05
2023-03-06T04:07:01.800Z,93.14
2023-03-06T04:07:33.259Z,93.15
2023-03-06T04:08:05.448Z,93.48
2023-03-06T04:08:36.842Z,93.36
2023-03-06T04:09:08.238Z,93.45
2023-03-06T04:09:39.627Z,93.18
2023-03-06T04:10:12.501Z,93.32
2023-03-06T04:10:43.896Z,93.21
2023-03-06T04:11:15.823Z,93.49
2023-03-06T04:11:47.230Z,93.44
2023-03-06T04:12:18.574Z,93.36
2023-03-06T04:12:50.000Z,93.12
2023-03-06T04:13:22.467Z,93.29
2023-03-06T04:13:53.929Z,93.36
2023-03-06T04:14:25.409Z,93.22
2023-03-06T04:14:56.812Z,93.27
2023-03-06T04:15:28.334Z,93.60
2023-03-06T04:16:00.240Z,93.82
2023-03-06T04:16:31.822Z,93.54
2023-03-06T04:17:03.255Z,93.53
2023-03-06T04:17:34.991Z,93.52
2023-03-06T04:18:06.702Z,93.65
2023-03-06T04:18:38.078Z,93.52
2023-03-06T04:19:09.444Z,93.71
2023-03-06T04:19:40.818Z,93.57
2023-03-06T04:20:12.425Z,93.69
2023-03-06T04:20:45.419Z,93.98
2023-03-06T04:21:16.797Z,93.38
2023-03-06T04:21:48.307Z,93.49
2023-03-06T04:22:19.746Z,93.59
2023-03-06T04:22:51.333Z,93.66
2023-03-06T04:23:24.217Z,93.39
2023-03-06T04:23:55.630Z,93.57
2023-03-06T04:24:27.009Z,93.54
2023-03-06T04:24:58.435Z,93.53
2023-03-06T04:25:29.862Z,93.44
2023-03-06T04:26:01.259Z,93.39
2023-03-06T04:26:32.751Z,93.44
2023-03-06T04:27:04.404Z,93.70
2023-03-06T04:27:36.101Z,93.39
2023-03-06T04:28:08.046Z,93.62
2023-03-06T04:28:39.411Z,93.66
2023-03-06T04:29:10.778Z,93.61
2023-03-06T04:29:42.169Z,93.67
2023-03-06T04:30:13.791Z,93.54
2023-03-06T04:30:45.198Z,93.58
2023-03-06T04:31:16.631Z,93.52
2023-03-06T04:31:48.103Z,93.51
2023-03-06T04:32:21.428Z,93.62
2023-03-06T04:32:53.026Z,93.57
2023-03-06T04:33:24.456Z,93.45
2023-03-06T04:33:55.836Z,93.45
2023-03-06T04:34:27.419Z,93.58
2023-03-06T04:34:58.758Z,93.84
2023-03-06T04:35:30.432Z,93.66
2023-03-06T04:36:01.882Z,94.04
2023-03-06T04:36:34.859Z,93.77
2023-03-06T04:37:06.246Z,93.98
2023-03-06T04:37:37.639Z,94.00
2023-03-06T04:38:09.154Z,94.10
2023-03-06T04:38:40.599Z,94.17
2023-03-06T04:39:13.124Z,94.41
2023-03-06T04:39:44.460Z,94.13
2023-03-06T04:40:21.691Z,94.46
2023-03-06T04:40:53.325Z,94.08
2023-03-06T04:41:25.063Z,94.21
2023-03-06T04:42:45.630Z,94.24
2023-03-06T04:43:17.011Z,94.25
2023-03-06T04:43:48.410Z,94.06
2023-03-06T04:44:19.794Z,93.94
2023-03-06T04:44:51.226Z,94.14
2023-03-06T04:45:23.218Z,94.29
2023-03-06T04:45:54.659Z,94.27
2023-03-06T04:46:26.136Z,94.08
2023-03-06T04:46:57.515Z,94.42
2023-03-06T04:47:28.914Z,94.19
2023-03-06T04:48:01.032Z,94.16
2023-03-06T04:48:32.508Z,94.23
2023-03-06T04:49:04.120Z,94.31
2023-03-06T04:49:35.630Z,94.24
2023-03-06T04:50:07.424Z,94.16
2023-03-06T04:50:38.812Z,93.90
2023-03-06T04:51:14.234Z,94.41
2023-03-06T04:51:45.616Z,94.30
2023-03-06T04:52:16.957Z,94.44
2023-03-06T04:52:48.438Z,94.30
2023-03-06T04:53:21.320Z,94.30
2023-03-06T04:53:52.771Z,94.34
2023-03-06T04:54:24.196Z,94.18
2023-03-06T04:54:55.700Z,94.27
2023-03-06T04:55:28.023Z,94.31
2023-03-06T04:55:59.536Z,94.44
2023-03-06T04:56:31.241Z,94.47
2023-03-06T04:57:02.803Z,94.55
2023-03-06T04:57:37.234Z,94.34
2023-03-06T04:58:11.246Z,94.69
2023-03-06T04:58:43.968Z,94.30
2023-03-06T04:59:15.627Z,94.71
2023-03-06T04:59:47.009Z,94.58
2023-03-06T05:00:21.563Z,94.63
2023-03-06T05:00:53.119Z,94.54
2023-03-06T05:01:24.598Z,94.72
2023-03-06T05:01:56.495Z,94.87
2023-03-06T05:02:28.032Z,94.79
2023-03-06T05:03:00.921Z,95.11
2023-03-06T05:03:32.429Z,95.32
2023-03-06T05:04:04.102Z,95.19
2023-03-06T05:04:35.609Z,95.33
2023-03-06T05:05:07.572Z,95.26
2023-03-06T05:05:39.005Z,95.43
2023-03-06T05:06:10.468Z,95.52
2023-03-06T05:06:41.953Z,95.53
2023-03-06T05:07:13.327Z,95.67
2023-03-06T05:07:45.147Z,95.91
2023-03-06T05:08:16.905Z,96.02
2023-03-06T05:08:48.248Z,95.72
2023-03-06T05:09:19.741Z,95.93
2023-03-06T05:09:51.343Z,96.11
2023-03-06T05:10:23.330Z,96.31
2023-03-06T05:11:01.716Z,96.29
2023-03-06T05:11:33.123Z,96.02
2023-03-06T05:12:04.766Z,95.73
2023-03-06T05:12:37.419Z,96.14
2023-03-06T05:13:09.316Z,96.50
2023-03-06T05:13:40.685Z,96.22
2023-03-06T05:14:12.316Z,96.39
2023-03-06T05:14:45.654Z,96.57
2023-03-06T05:15:18.636Z,96.42
2023-03-06T05:15:50.167Z,96.62
2023-03-06T05:16:21.658Z,96.35
2023-03-06T05:16:53.080Z,96.50
2023-03-06T05:17:24.471Z,96.69
2023-03-06T05:17:56.418Z,96.74
2023-03-06T05:18:28.008Z,96.72
2023-03-06T05:18:59.533Z,96.68
2023-03-06T05:19:31.314Z,96.70
2023-03-06T05:20:06.393Z,96.89
2023-03-06T05:20:37.807Z,96.75
2023-03-06T05:21:09.193Z,96.64
2023-03-06T05:21:40.577Z,96.53
2023-03-06T05:22:11.960Z,96.79
2023-03-06T05:22:44.020Z,96.88
2023-03-06T05:23:15.471Z,96.98
2023-03-06T05:23:47.724Z,96.75
2023-03-06T05:24:19.064Z,97.00
2023-03-06T05:24:50.684Z,96.96
2023-03-06T05:25:22.015Z,97.07
2023-03-06T05:25:53.396Z,97.02
2023-03-06T05:26:24.801Z,96.85
2023-03-06T05:26:56.198Z,97.04
2023-03-06T05:27:28.370Z,97.09
2023-03-06T05:27:59.818Z,97.14
2023-03-06T05:28:31.153Z,97.04
2023-03-06T05:29:02.515Z,96.99
2023-03-06T05:29:33.906Z,96.98
2023-03-06T05:30:05.975Z,96.85
2023-03-06T05:30:37.440Z,96.96
2023-03-06T05:31:08.955Z,97.14
2023-03-06T05:31:40.372Z,97.11
2023-03-06T05:32:12.026Z,97.26
2023-03-06T05:32:43.994Z,97.08
2023-03-06T05:33:15.461Z,97.42
2023-03-06T05:33:46.854Z,97.36
2023-03-06T05:34:18.256Z,97.28
2023-03-06T05:34:49.861Z,97.14
2023-03-06T05:35:23.479Z,97.33
2023-03-06T05:35:54.880Z,97.29
2023-03-06T05:36:26.660Z,97.25
2023-03-06T05:36:58.014Z,97.14
2023-03-06T05:37:29.782Z,97.16
2023-03-06T05:38:01.377Z,97.25
2023-03-06T05:38:32.801Z,97.31
2023-03-06T05:39:04.231Z,97.34
2023-03-06T05:39:35.969Z,97.35
2023-03-06T05:40:09.637Z,96.94
2023-03-06T05:40:41.870Z,97.22
2023-03-06T05:41:14.022Z,96.92
2023-03-06T05:41:45.385Z,97.14
2023-03-06T05:42:16.824Z,96.95
2023-03-06T05:42:48.289Z,97.31
2023-03-06T05:43:20.414Z,97.07
2023-03-06T05:43:53.132Z,96.97
2023-03-06T05:44:24.484Z,96.99
2023-03-06T05:44:55.901Z,97.03
2023-03-06T05:45:27.294Z,97.09
2023-03-06T05:46:03.714Z,97.05
2023-03-06T05:46:35.088Z,97.08
2023-03-06T05:47:06.518Z,96.90
2023-03-06T05:47:37.892Z,97.10
2023-03-06T05:48:12.331Z,97.24
2023-03-06T05:48:45.305Z,96.96
2023-03-06T05:49:17.883Z,97.16
2023-03-06T05:49:49.414Z,97.12
2023-03-06T05:50:20.798Z,97.02
2023-03-06T05:50:59.317Z,96.94
2023-03-06T05:51:30.736Z,96.99
2023-03-06T05:52:04.159Z,96.87
2023-03-06T05:52:35.920Z,96.90
2023-03-06T05:53:07.246Z,96.85
2023-03-06T05:53:38.673Z,96.81
2023-03-06T05:54:10.070Z,96.78
2023-03-06T05:54:41.657Z,97.00
2023-03-06T05:55:13.362Z,97.09
2023-03-06T05:55:44.826Z,97.06
2023-03-06T05:56:16.635Z,97.01
2023-03-06T05:56:48.042Z,97.00
2023-03-06T05:57:23.850Z,96.92
2023-03-06T05:57:55.292Z,96.81
2023-03-06T05:58:27.537Z,96.77
2023-03-06T05:58:58.958Z,97.12
2023-03-06T05:59:32.829Z,96.85
2023-03-06T06:00:05.286Z,96.89
2023-03-06T06:00:36.643Z,96.81
2023-03-06T06:01:13.305Z,96.80
2023-03-06T06:01:45.497Z,96.83
2023-03-06T06:02:18.303Z,96.83
2023-03-06T06:02:49.808Z,96.72
2023-03-06T06:03:21.600Z,96.80
2023-03-06T06:04:41.850Z,96.57
2023-03-06T06:05:14.240Z,96.61
2023-03-06T06:05:46.063Z,96.94
2023-03-06T06:06:18.444Z,97.24
2023-03-06T06:06:58.201Z,97.03
2023-03-06T06:07:29.814Z,97.19
2023-03-06T06:08:01.341Z,97.14
2023-03-06T06:08:32.847Z,97.05
2023-03-06T06:09:04.267Z,97.12
2023-03-06T06:09:35.639Z,97.18
2023-03-06T06:10:07.895Z,97.32
2023-03-06T06:10:39.621Z,97.09
2023-03-06T06:11:13.139Z,97.12
2023-03-06T06:11:44.608Z,97.30
2023-03-06T06:12:16.008Z,97.06
2023-03-06T06:12:47.407Z,97.07
2023-03-06T06:13:18.771Z,97.38
2023-03-06T06:13:50.339Z,97.22
2023-03-06T06:14:22.502Z,97.16
2023-03-06T06:14:54.233Z,97.22
2023-03-06T06:15:28.726Z,97.42
2023-03-06T06:16:00.233Z,97.34
2023-03-06T06:16:31.601Z,97.54
2023-03-06T06:17:03.521Z,97.26
2023-03-06T06:17:34.875Z,97.48
2023-03-06T06:18:06.292Z,97.65
2023-03-06T06:18:41.043Z,97.44
2023-03-06T06:19:18.799Z,97.60
2023-03-06T06:19:50.478Z,97.62
2023-03-06T06:20:22.113Z,97.61
2023-03-06T06:20:55.852Z,97.63
2023-03-06T06:21:27.673Z,97.76
2023-03-06T06:21:59.036Z,97.92
2023-03-06T06:22:30.424Z,97.93
2023-03-06T06:23:01.813Z,97.96
2023-03-06T06:23:33.769Z,97.90
2023-03-06T06:24:05.609Z,98.18
2023-03-06T06:24:37.234Z,98.03
2023-03-06T06:25:08.817Z,97.86
2023-03-06T06:25:40.189Z,97.94
2023-03-06T06:26:11.588Z,98.18
2023-03-06T06:26:43.729Z,98.11
2023-03-06T06:27:15.130Z,98.26
2023-03-06T06:27:46.542Z,98.22
2023-03-06T06:28:17.979Z,98.25
2023-03-06T06:28:49.579Z,98.24
2023-03-06T06:29:21.973Z,98.14
2023-03-06T06:29:53.362Z,98.15
2023-03-06T06:30:24.854Z,98.13
2023-03-06T06:30:56.472Z,98.20
2023-03-06T06:31:27.976Z,98.25
2023-03-06T06:31:59.926Z,98.01
2023-03-06T06:32:31.541Z,97.88
2023-03-06T06:33:02.990Z,98.09
2023-03-06T06:33:34.398Z,98.11
2023-03-06T06:34:07.551Z,98.33
2023-03-06T06:34:38.909Z,98.23
2023-03-06T06:35:10.448Z,98.04
2023-03-06T06:35:42.053Z,98.12
2023-03-06T06:36:21.323Z,97.96
2023-03-06T06:36:54.287Z,97.90
2023-03-06T06:37:26.211Z,97.88
2023-03-06T06:37:57.695Z,97.89
2023-03-06T06:38:29.147Z,97.76
2023-03-06T06:39:00.641Z,97.74
2023-03-06T06:39:31.991Z,97.74
2023-03-06T06:40:04.475Z,97.57
2023-03-06T06:40:36.046Z,97.65
2023-03-06T06:42:20.043Z,97.71
2023-03-06T06:42:52.567Z,97.61
2023-03-06T06:43:23.938Z,97.11
2023-03-06T06:43:57.112Z,97.15
2023-03-06T06:44:30.118Z,97.03
2023-03-06T06:45:01.518Z,96.86
2023-03-06T06:45:33.182Z,96.92
2023-03-06T06:46:28.294Z,96.92
2023-03-06T06:47:22.011Z,96.90
2023-03-06T06:47:49.894Z,96.93
2023-03-06T06:48:21.400Z,96.68
2023-03-06T06:48:54.721Z,96.50
2023-03-06T06:49:26.094Z,96.86
2023-03-06T06:49:57.645Z,96.85
2023-03-06T06:50:29.159Z,96.96
2023-03-06T06:51:00.739Z,96.67
2023-03-06T06:51:33.741Z,96.60
2023-03-06T06:52:06.483Z,96.79
2023-03-06T06:52:37.822Z,96.57
2023-03-06T06:53:09.206Z,96.79
2023-03-06T06:53:40.534Z,96.48
2023-03-06T06:54:12.369Z,96.55
2023-03-06T06:54:43.810Z,96.58
2023-03-06T06:55:15.566Z,96.39
2023-03-06T06:55:46.895Z,96.30
2023-03-06T06:56:18.393Z,96.30
2023-03-06T06:56:49.867Z,96.37
2023-03-06T06:57:21.800Z,96.13
2023-03-06T06:57:53.500Z,96.30
2023-03-06T06:58:25.863Z,96.11
2023-03-06T06:59:15.327Z,96.22
2023-03-06T06:59:47.863Z,95.96
2023-03-06T07:00:20.217Z,96.07
2023-03-06T07:00:51.776Z,96.10
2023-03-06T07:01:23.295Z,95.90
2023-03-06T07:01:54.740Z,95.82
2023-03-06T07:02:26.143Z,95.88
2023-03-06T07:02:57.548Z,95.71